createdAt,value
2018-12-14T00:00:10.269Z,0.00
2018-12-14T00:01:10.293Z,0.00
2018-12-14T00:02:10.266Z,0.00
2018-12-14T00:03:10.248Z,0.00
2018-12-14T00:04:10.230Z,0.00
2018-12-14T00:05:10.220Z,0.00
2018-12-14T00:06:10.237Z,0.00
2018-12-14T00:07:10.205Z,0.00
2018-12-14T00:08:10.227Z,0.00
2018-12-14T00:09:10.185Z,0.00
2018-12-14T00:10:10.169Z,0.00
2018-12-14T00:11:10.157Z,0.00
2018-12-14T00:12:10.156Z,0.00
2018-12-14T00:13:10.183Z,0.00
2018-12-14T00:14:10.127Z,0.00
2018-12-14T00:15:10.112Z,0.00
2018-12-14T00:16:10.098Z,0.00
2018-12-14T00:17:10.102Z,0.00
2018-12-14T00:18:10.117Z,0.00
2018-12-14T00:19:10.075Z,0.00
2018-12-14T00:20:10.067Z,0.00
2018-12-14T00:21:10.044Z,0.00
2018-12-14T00:22:10.043Z,0.00
2018-12-14T00:23:10.088Z,0.00
2018-12-14T00:24:10.024Z,0.00
2018-12-14T00:25:10.017Z,0.00
2018-12-14T00:26:10.006Z,0.00
2018-12-14T00:27:09.990Z,0.00
2018-12-14T00:28:10.020Z,0.00
2018-12-14T00:29:09.990Z,0.00
2018-12-14T00:30:09.963Z,0.00
2018-12-14T00:31:09.948Z,0.00
2018-12-14T00:32:09.946Z,0.00
2018-12-14T00:33:09.967Z,0.00
2018-12-14T00:34:09.920Z,0.00
2018-12-14T00:35:09.924Z,0.00
2018-12-14T00:36:09.898Z,0.00
2018-12-14T00:37:09.887Z,0.00
2018-12-14T00:38:09.913Z,0.00
2018-12-14T00:39:09.875Z,0.00
2018-12-14T00:40:09.900Z,0.00
2018-12-14T00:41:09.859Z,0.00
2018-12-14T00:42:09.834Z,0.00
2018-12-14T00:43:09.821Z,0.00
2018-12-14T00:44:09.820Z,0.00
2018-12-14T00:45:09.843Z,0.00
2018-12-14T00:46:09.834Z,0.00
2018-12-14T00:47:09.800Z,0.00
2018-12-14T00:48:09.774Z,0.00
2018-12-14T00:49:09.764Z,0.00
2018-12-14T00:50:09.756Z,0.00
2018-12-14T00:51:09.780Z,0.00
2018-12-14T00:52:09.747Z,0.00
2018-12-14T00:53:09.744Z,0.00
2018-12-14T00:54:09.712Z,0.00
2018-12-14T00:55:09.728Z,0.00
2018-12-14T00:56:09.729Z,0.00
2018-12-14T00:57:09.688Z,0.00
2018-12-14T00:58:09.673Z,0.00
2018-12-14T00:59:09.677Z,0.00
2018-12-14T01:00:09.651Z,0.00
2018-12-14T01:01:09.680Z,0.00
2018-12-14T01:02:09.643Z,0.00
2018-12-14T01:03:09.622Z,0.00
2018-12-14T01:04:09.607Z,0.00
2018-12-14T01:05:09.617Z,0.00
2018-12-14T01:06:09.637Z,0.00
2018-12-14T01:07:09.583Z,0.00
2018-12-14T01:08:09.567Z,0.00
2018-12-14T01:09:09.608Z,0.00
2018-12-14T01:10:09.545Z,0.00
2018-12-14T01:11:09.536Z,0.00
2018-12-14T01:12:09.530Z,0.00
2018-12-14T01:13:09.522Z,0.00
2018-12-14T01:14:09.548Z,0.00
2018-12-14T01:15:09.500Z,0.00
2018-12-14T01:16:09.487Z,0.00
2018-12-14T01:17:09.480Z,0.00
2018-12-14T01:18:09.478Z,0.00
2018-12-14T01:19:09.516Z,0.00
2018-12-14T01:20:09.468Z,0.00
2018-12-14T01:21:09.439Z,0.00
2018-12-14T01:22:09.423Z,0.00
2018-12-14T01:23:09.435Z,0.00
2018-12-14T01:24:09.444Z,0.00
2018-12-14T01:25:09.394Z,0.00
2018-12-14T01:26:09.398Z,0.00
2018-12-14T01:27:09.369Z,0.00
2018-12-14T01:28:09.357Z,0.00
2018-12-14T01:29:09.391Z,0.00
2018-12-14T01:30:09.356Z,0.00
2018-12-14T01:31:09.340Z,0.00
2018-12-14T01:32:09.370Z,0.00
2018-12-14T01:33:09.307Z,0.00
2018-12-14T01:34:09.359Z,0.00
2018-12-14T01:35:09.287Z,0.00
2018-12-14T01:36:09.277Z,0.00
2018-12-14T01:37:09.275Z,0.00
2018-12-14T01:38:09.256Z,0.00
2018-12-14T01:39:09.284Z,0.00
2018-12-14T01:40:09.242Z,0.00
2018-12-14T01:41:09.268Z,0.00
2018-12-14T01:42:09.218Z,0.00
2018-12-14T01:43:09.221Z,0.00
2018-12-14T01:44:09.204Z,0.00
2018-12-14T01:45:09.189Z,0.00
2018-12-14T01:46:09.211Z,0.00
2018-12-14T01:47:09.172Z,0.00
2018-12-14T01:48:09.156Z,0.00
2018-12-14T01:49:09.164Z,0.00
2018-12-14T01:50:09.135Z,0.00
2018-12-14T01:51:09.157Z,0.00
2018-12-14T01:52:09.118Z,0.00
2018-12-14T01:53:09.102Z,0.00
2018-12-14T01:54:09.146Z,0.00
2018-12-14T01:55:09.098Z,0.00
2018-12-14T01:56:09.079Z,0.00
2018-12-14T01:57:09.063Z,0.00
2018-12-14T01:58:09.054Z,0.00
2018-12-14T01:59:09.097Z,0.00
2018-12-14T02:00:09.033Z,0.00
2018-12-14T02:01:09.031Z,0.00
2018-12-14T02:02:09.014Z,0.00
2018-12-14T02:03:09.002Z,0.00
2018-12-14T02:04:09.040Z,0.00
2018-12-14T02:05:09.035Z,0.00
2018-12-14T02:06:08.973Z,0.00
2018-12-14T02:07:08.963Z,0.00
2018-12-14T02:08:08.957Z,0.00
2018-12-14T02:09:08.940Z,0.00
2018-12-14T02:10:08.970Z,0.00
2018-12-14T02:11:08.933Z,0.00
2018-12-14T02:12:11.429Z,0.00
2018-12-14T02:13:08.907Z,0.00
2018-12-14T02:14:08.896Z,0.00
2018-12-14T02:15:08.921Z,0.00
2018-12-14T02:16:08.877Z,0.00
2018-12-14T02:17:08.878Z,0.00
2018-12-14T02:18:08.851Z,0.00
2018-12-14T02:19:08.843Z,0.00
2018-12-14T02:20:08.885Z,0.00
2018-12-14T02:21:08.851Z,0.00
2018-12-14T02:22:08.810Z,0.00
2018-12-14T02:23:08.820Z,0.00
2018-12-14T02:24:08.796Z,0.00
2018-12-14T02:25:08.827Z,0.00
2018-12-14T02:26:08.774Z,0.00
2018-12-14T02:27:08.764Z,0.00
2018-12-14T02:28:08.751Z,0.00
2018-12-14T02:29:08.752Z,0.00
2018-12-14T02:30:08.787Z,0.00
2018-12-14T02:31:08.742Z,0.00
2018-12-14T02:32:08.735Z,0.00
2018-12-14T02:33:08.704Z,0.00
2018-12-14T02:34:08.702Z,0.00
2018-12-14T02:35:08.722Z,0.00
2018-12-14T02:36:08.676Z,0.00
2018-12-14T02:37:08.718Z,0.00
2018-12-14T02:38:08.699Z,0.00
2018-12-14T02:39:08.659Z,0.00
2018-12-14T02:40:08.642Z,0.00
2018-12-14T02:41:08.628Z,0.00
2018-12-14T02:42:08.659Z,0.00
2018-12-14T02:43:08.613Z,0.00
2018-12-14T02:44:08.599Z,0.00
2018-12-14T02:45:08.606Z,0.00
2018-12-14T02:46:08.579Z,0.00
2018-12-14T02:47:08.613Z,0.00
2018-12-14T02:48:08.583Z,0.00
2018-12-14T02:49:08.570Z,0.00
2018-12-14T02:50:08.601Z,0.00
2018-12-14T02:51:08.531Z,0.00
2018-12-14T02:52:08.581Z,0.00
2018-12-14T02:53:08.504Z,0.00
2018-12-14T02:54:08.513Z,0.00
2018-12-14T02:55:08.520Z,0.00
2018-12-14T02:56:08.514Z,0.00
2018-12-14T02:57:08.514Z,0.00
2018-12-14T02:58:08.453Z,0.00
2018-12-14T02:59:08.448Z,0.00
2018-12-14T03:00:08.434Z,0.00
2018-12-14T03:01:08.416Z,0.00
2018-12-14T03:02:08.450Z,0.00
2018-12-14T03:03:08.426Z,0.00
2018-12-14T03:04:08.396Z,0.00
2018-12-14T03:05:08.390Z,0.00
2018-12-14T03:06:08.384Z,0.00
2018-12-14T03:07:08.416Z,0.00
2018-12-14T03:08:08.417Z,0.00
2018-12-14T03:09:08.350Z,0.00
2018-12-14T03:10:08.337Z,0.00
2018-12-14T03:11:08.329Z,0.00
2018-12-14T03:12:08.348Z,0.00
2018-12-14T03:13:08.301Z,0.00
2018-12-14T03:14:08.315Z,0.00
2018-12-14T03:15:08.306Z,0.00
2018-12-14T03:16:08.310Z,0.00
2018-12-14T03:17:08.297Z,0.00
2018-12-14T03:18:08.286Z,0.00
2018-12-14T03:19:08.253Z,0.00
2018-12-14T03:20:08.239Z,0.00
2018-12-14T03:21:08.252Z,0.00
2018-12-14T03:22:08.217Z,0.00
2018-12-14T03:23:08.254Z,0.00
2018-12-14T03:24:08.200Z,0.00
2018-12-14T03:25:36.659Z,0.00
2018-12-14T03:26:09.168Z,0.00
2018-12-14T03:27:08.159Z,0.00
2018-12-14T03:28:08.176Z,0.00
2018-12-14T03:29:08.137Z,0.00
2018-12-14T03:30:08.132Z,0.00
2018-12-14T03:31:08.117Z,0.00
2018-12-14T03:32:08.105Z,0.00
2018-12-14T03:33:08.136Z,0.00
2018-12-14T03:34:08.086Z,0.00
2018-12-14T03:35:08.075Z,0.00
2018-12-14T03:36:08.064Z,0.00
2018-12-14T03:37:08.055Z,0.00
2018-12-14T03:38:08.051Z,0.00
2018-12-14T03:39:08.041Z,0.00
2018-12-14T03:40:08.040Z,0.00
2018-12-14T03:41:08.024Z,0.00
2018-12-14T03:42:08.009Z,0.00
2018-12-14T03:43:07.996Z,0.00
2018-12-14T03:44:08.036Z,0.00
2018-12-14T03:45:07.985Z,0.00
2018-12-14T03:46:07.979Z,0.00
2018-12-14T03:47:07.948Z,0.00
2018-12-14T03:48:07.955Z,0.00
2018-12-14T03:49:07.968Z,0.00
2018-12-14T03:50:07.922Z,0.00
2018-12-14T03:51:07.925Z,0.00
2018-12-14T03:52:07.914Z,0.00
2018-12-14T03:53:07.901Z,0.00
2018-12-14T03:54:07.925Z,0.00
2018-12-14T03:55:07.870Z,0.00
2018-12-14T03:56:07.860Z,0.00
2018-12-14T03:57:07.853Z,0.00
2018-12-14T03:58:07.861Z,0.00
2018-12-14T03:59:07.875Z,0.00
2018-12-14T04:00:07.830Z,0.00
2018-12-14T04:01:07.847Z,0.00
2018-12-14T04:02:07.818Z,0.00
2018-12-14T04:03:07.805Z,0.00
2018-12-14T04:04:07.784Z,0.00
2018-12-14T04:05:07.780Z,0.00
2018-12-14T04:06:07.817Z,0.00
2018-12-14T04:07:07.771Z,0.00
2018-12-14T04:08:07.752Z,0.00
2018-12-14T04:09:07.733Z,0.00
2018-12-14T04:10:07.724Z,0.00
2018-12-14T04:11:07.745Z,0.00
2018-12-14T04:12:07.704Z,0.00
2018-12-14T04:13:07.700Z,0.00
2018-12-14T04:14:07.682Z,0.00
2018-12-14T04:15:07.679Z,0.00
2018-12-14T04:16:07.695Z,0.00
2018-12-14T04:17:07.668Z,0.00
2018-12-14T04:18:07.683Z,0.00
2018-12-14T04:19:07.627Z,0.00
2018-12-14T04:20:07.619Z,0.00
2018-12-14T04:21:07.619Z,0.00
2018-12-14T04:22:07.631Z,0.00
2018-12-14T04:23:07.622Z,0.00
2018-12-14T04:24:07.577Z,0.00
2018-12-14T04:25:07.590Z,0.00
2018-12-14T04:26:07.555Z,0.00
2018-12-14T04:27:07.549Z,0.00
2018-12-14T04:28:07.577Z,0.00
2018-12-14T04:29:07.551Z,0.00
2018-12-14T04:30:07.547Z,0.00
2018-12-14T04:31:07.531Z,0.00
2018-12-14T04:32:07.493Z,0.00
2018-12-14T04:33:07.538Z,0.00
2018-12-14T04:34:07.493Z,0.00
2018-12-14T04:35:07.480Z,0.00
2018-12-14T04:36:07.460Z,0.00
2018-12-14T04:37:07.446Z,0.00
2018-12-14T04:38:07.475Z,0.00
2018-12-14T04:39:07.431Z,0.00
2018-12-14T04:40:07.417Z,0.00
2018-12-14T04:41:07.406Z,0.00
2018-12-14T04:42:07.400Z,0.00
2018-12-14T04:43:07.418Z,0.00
2018-12-14T04:44:07.381Z,0.00
2018-12-14T04:45:07.367Z,0.00
2018-12-14T04:46:07.367Z,0.00
2018-12-14T04:47:07.339Z,0.00
2018-12-14T04:48:07.365Z,0.00
2018-12-14T04:49:07.368Z,0.00
2018-12-14T04:50:07.327Z,0.00
2018-12-14T04:51:07.301Z,0.00
2018-12-14T04:52:07.908Z,0.00
2018-12-14T04:53:07.280Z,0.00
2018-12-14T04:54:07.359Z,0.00
2018-12-14T04:55:07.276Z,0.00
2018-12-14T04:56:07.250Z,0.00
2018-12-14T04:57:07.248Z,0.00
2018-12-14T04:58:07.240Z,0.00
2018-12-14T04:59:07.258Z,0.00
2018-12-14T05:00:07.226Z,0.00
2018-12-14T05:01:07.202Z,0.00
2018-12-14T05:02:07.254Z,0.00
2018-12-14T05:03:07.179Z,0.00
2018-12-14T05:04:07.170Z,0.00
2018-12-14T05:05:07.164Z,0.00
2018-12-14T05:06:07.148Z,0.00
2018-12-14T05:07:07.225Z,0.00
2018-12-14T05:08:07.227Z,0.00
2018-12-14T05:09:07.118Z,0.00
2018-12-14T05:10:07.123Z,0.00
2018-12-14T05:11:07.182Z,0.00
2018-12-14T05:12:07.142Z,0.00
2018-12-14T05:13:07.083Z,0.00
2018-12-14T05:14:07.064Z,0.00
2018-12-14T05:15:07.073Z,0.00
2018-12-14T05:16:07.046Z,0.00
2018-12-14T05:17:07.047Z,0.00
2018-12-14T05:18:07.093Z,0.00
2018-12-14T05:19:07.052Z,0.00
2018-12-14T05:20:07.112Z,0.00
2018-12-14T05:21:07.019Z,0.00
2018-12-14T05:22:06.993Z,0.00
2018-12-14T05:23:07.019Z,0.00
2018-12-14T05:24:06.968Z,0.00
2018-12-14T05:25:06.972Z,0.00
2018-12-14T05:26:06.945Z,0.00
2018-12-14T05:27:06.937Z,0.00
2018-12-14T05:28:06.971Z,0.00
2018-12-14T05:29:06.926Z,0.00
2018-12-14T05:30:06.923Z,0.00
2018-12-14T05:31:06.908Z,0.00
2018-12-14T05:32:06.964Z,0.00
2018-12-14T05:33:06.920Z,0.00
2018-12-14T05:34:06.887Z,0.00
2018-12-14T05:35:06.874Z,0.00
2018-12-14T05:36:06.855Z,0.00
2018-12-14T05:37:06.842Z,0.00
2018-12-14T05:38:06.848Z,0.00
2018-12-14T05:39:06.849Z,0.00
2018-12-14T05:40:06.840Z,0.00
2018-12-14T05:41:06.792Z,0.00
2018-12-14T05:42:06.788Z,0.00
2018-12-14T05:43:06.826Z,0.00
2018-12-14T05:44:06.773Z,0.00
2018-12-14T05:45:06.779Z,0.00
2018-12-14T05:46:06.746Z,0.00
2018-12-14T05:47:06.727Z,0.00
2018-12-14T05:48:06.811Z,0.00
2018-12-14T05:49:06.714Z,0.00
2018-12-14T05:50:06.697Z,0.00
2018-12-14T05:51:06.688Z,0.00
2018-12-14T05:52:06.688Z,0.00
2018-12-14T05:53:06.734Z,0.00
2018-12-14T05:54:06.670Z,0.00
2018-12-14T05:55:06.664Z,0.00
2018-12-14T05:56:06.638Z,0.00
2018-12-14T05:57:06.630Z,0.00
2018-12-14T05:58:06.647Z,0.00
2018-12-14T05:59:06.649Z,0.00
2018-12-14T06:00:06.598Z,0.00
2018-12-14T06:01:06.596Z,0.00
2018-12-14T06:02:06.603Z,0.00
2018-12-14T06:03:06.568Z,0.00
2018-12-14T06:04:06.599Z,0.00
2018-12-14T06:05:06.626Z,0.00
2018-12-14T06:06:06.545Z,0.00
2018-12-14T06:07:06.538Z,0.00
2018-12-14T06:08:06.542Z,0.00
2018-12-14T06:09:06.502Z,0.00
2018-12-14T06:10:06.567Z,0.00
2018-12-14T06:11:06.492Z,0.00
2018-12-14T06:12:06.475Z,0.00
2018-12-14T06:13:09.145Z,0.00
2018-12-14T06:14:06.471Z,0.00
2018-12-14T06:15:06.492Z,0.00
2018-12-14T06:16:06.475Z,0.00
2018-12-14T06:17:06.469Z,0.00
2018-12-14T06:18:06.414Z,0.00
2018-12-14T06:19:06.403Z,0.00
2018-12-14T06:20:06.441Z,0.00
2018-12-14T06:21:06.401Z,0.00
2018-12-14T06:22:06.417Z,0.00
2018-12-14T06:23:06.428Z,0.00
2018-12-14T06:24:06.368Z,0.00
2018-12-14T06:25:06.339Z,0.00
2018-12-14T06:26:06.332Z,0.00
2018-12-14T06:27:06.375Z,0.00
2018-12-14T06:28:06.343Z,0.00
2018-12-14T06:29:06.294Z,0.00
2018-12-14T06:30:06.293Z,0.00
2018-12-14T06:31:06.294Z,0.00
2018-12-14T06:32:06.306Z,0.00
2018-12-14T06:33:06.305Z,0.00
2018-12-14T06:34:06.250Z,0.00
2018-12-14T06:35:06.243Z,0.00
2018-12-14T06:36:06.224Z,0.00
2018-12-14T06:37:06.265Z,0.00
2018-12-14T06:38:06.221Z,0.00
2018-12-14T06:39:06.231Z,0.00
2018-12-14T06:40:06.188Z,0.00
2018-12-14T06:41:06.177Z,0.00
2018-12-14T06:42:06.238Z,0.00
2018-12-14T06:43:06.179Z,0.00
2018-12-14T06:44:06.172Z,0.00
2018-12-14T06:45:06.146Z,0.00
2018-12-14T06:46:06.134Z,0.00
2018-12-14T06:47:06.170Z,0.00
2018-12-14T06:48:06.166Z,0.00
2018-12-14T06:49:06.106Z,0.00
2018-12-14T06:50:06.090Z,5.62
2018-12-14T06:51:06.100Z,5.62
2018-12-14T06:52:06.115Z,5.62
2018-12-14T06:53:06.058Z,5.62
2018-12-14T06:54:06.051Z,5.62
2018-12-14T06:55:06.073Z,5.62
2018-12-14T06:56:06.022Z,5.62
2018-12-14T06:57:06.014Z,11.25
2018-12-14T06:58:06.014Z,11.25
2018-12-14T06:59:06.043Z,11.25
2018-12-14T07:00:06.898Z,11.25
2018-12-14T07:01:05.972Z,11.25
2018-12-14T07:02:05.978Z,11.25
2018-12-14T07:03:05.961Z,16.88
2018-12-14T07:04:05.954Z,16.88
2018-12-14T07:05:06.007Z,16.88
2018-12-14T07:06:05.922Z,16.88
2018-12-14T07:07:05.930Z,16.88
2018-12-14T07:08:05.945Z,22.50
2018-12-14T07:09:05.891Z,22.50
2018-12-14T07:10:05.889Z,22.50
2018-12-14T07:11:05.929Z,22.50
2018-12-14T07:12:05.874Z,22.50
2018-12-14T07:13:05.873Z,28.12
2018-12-14T07:14:05.841Z,28.12
2018-12-14T07:15:05.839Z,28.12
2018-12-14T07:16:05.864Z,28.12
2018-12-14T07:17:05.819Z,28.12
2018-12-14T07:18:05.799Z,33.75
2018-12-14T07:19:05.781Z,33.75
2018-12-14T07:20:05.863Z,33.75
2018-12-14T07:21:05.774Z,33.75
2018-12-14T07:22:05.765Z,33.75
2018-12-14T07:23:05.744Z,39.38
2018-12-14T07:24:05.737Z,39.38
2018-12-14T07:25:38.780Z,39.38
2018-12-14T07:26:06.742Z,39.38
2018-12-14T07:27:05.723Z,39.38
2018-12-14T07:28:05.698Z,45.00
2018-12-14T07:29:05.685Z,45.00
2018-12-14T07:30:05.686Z,45.00
2018-12-14T07:31:05.734Z,45.00
2018-12-14T07:32:05.675Z,45.00
2018-12-14T07:33:05.675Z,50.62
2018-12-14T07:34:05.645Z,50.62
2018-12-14T07:35:05.632Z,50.62
2018-12-14T07:36:05.648Z,50.62
2018-12-14T07:37:05.844Z,50.62
2018-12-14T07:38:05.591Z,56.25
2018-12-14T07:39:05.583Z,56.25
2018-12-14T07:40:05.625Z,56.25
2018-12-14T07:41:05.567Z,56.25
2018-12-14T07:42:05.549Z,56.25
2018-12-14T07:43:05.537Z,56.25
2018-12-14T07:44:05.531Z,61.88
2018-12-14T07:45:05.549Z,61.88
2018-12-14T07:46:05.574Z,61.88
2018-12-14T07:47:11.470Z,61.88
2018-12-14T07:48:06.490Z,61.88
2018-12-14T07:49:05.479Z,67.50
2018-12-14T07:50:05.483Z,67.50
2018-12-14T07:51:05.494Z,67.50
2018-12-14T07:52:05.471Z,67.50
2018-12-14T07:53:09.194Z,67.50
2018-12-14T07:54:05.429Z,67.50
2018-12-14T07:55:05.417Z,67.50
2018-12-14T07:56:05.446Z,73.12
2018-12-14T07:57:05.403Z,73.12
2018-12-14T07:58:05.427Z,73.12
2018-12-14T07:59:05.407Z,73.12
2018-12-14T08:00:05.377Z,73.12
2018-12-14T08:01:05.358Z,73.12
2018-12-14T08:02:05.353Z,73.12
2018-12-14T08:03:05.397Z,78.75
2018-12-14T08:04:05.322Z,78.75
2018-12-14T08:05:05.345Z,78.75
2018-12-14T08:06:05.316Z,78.75
2018-12-14T08:07:05.297Z,78.75
2018-12-14T08:08:05.321Z,78.75
2018-12-14T08:09:05.347Z,78.75
2018-12-14T08:10:05.265Z,84.38
2018-12-14T08:11:05.261Z,84.38
2018-12-14T08:12:05.248Z,84.38
2018-12-14T08:13:05.231Z,84.38
2018-12-14T08:14:05.261Z,84.38
2018-12-14T08:15:11.109Z,84.38
2018-12-14T08:16:06.214Z,84.38
2018-12-14T08:17:05.195Z,84.38
2018-12-14T08:18:05.182Z,90.00
2018-12-14T08:19:06.375Z,90.00
2018-12-14T08:20:05.199Z,90.00
2018-12-14T08:21:05.175Z,90.00
2018-12-14T08:22:05.151Z,90.00
2018-12-14T08:23:05.151Z,90.00
2018-12-14T08:24:05.116Z,90.00
2018-12-14T08:25:05.147Z,90.00
2018-12-14T08:26:05.101Z,90.00
2018-12-14T08:27:05.089Z,95.62
2018-12-14T08:28:05.075Z,95.62
2018-12-14T08:29:05.076Z,95.62
2018-12-14T08:30:05.102Z,95.62
2018-12-14T08:31:05.055Z,95.62
2018-12-14T08:32:05.050Z,95.62
2018-12-14T08:33:05.028Z,95.62
2018-12-14T08:34:05.014Z,95.62
2018-12-14T08:35:05.043Z,95.62
2018-12-14T08:36:04.995Z,101.25
2018-12-14T08:37:05.009Z,101.25
2018-12-14T08:38:04.972Z,101.25
2018-12-14T08:39:04.968Z,101.25
2018-12-14T08:40:04.997Z,101.25
2018-12-14T08:41:04.983Z,101.25
2018-12-14T08:42:04.934Z,101.25
2018-12-14T08:43:04.936Z,101.25
2018-12-14T08:44:04.922Z,101.25
2018-12-14T08:45:04.944Z,106.88
2018-12-14T08:46:04.923Z,106.88
2018-12-14T08:47:04.894Z,106.88
2018-12-14T08:48:04.872Z,106.88
2018-12-14T08:49:04.862Z,106.88
2018-12-14T08:50:04.897Z,106.88
2018-12-14T08:51:04.928Z,106.88
2018-12-14T08:52:04.850Z,106.88
2018-12-14T08:53:04.827Z,106.88
2018-12-14T08:54:04.824Z,106.88
2018-12-14T08:55:04.805Z,112.50
2018-12-14T08:56:04.845Z,112.50
2018-12-14T08:57:04.796Z,112.50
2018-12-14T08:58:04.779Z,112.50
2018-12-14T08:59:04.773Z,112.50
2018-12-14T09:00:04.788Z,112.50
2018-12-14T09:01:04.778Z,112.50
2018-12-14T09:02:04.773Z,112.50
2018-12-14T09:03:04.714Z,112.50
2018-12-14T09:04:04.708Z,112.50
2018-12-14T09:05:04.704Z,112.50
2018-12-14T09:06:04.747Z,118.12
2018-12-14T09:07:04.702Z,118.12
2018-12-14T09:08:04.738Z,118.12
2018-12-14T09:09:04.679Z,118.12
2018-12-14T09:10:04.701Z,118.12
2018-12-14T09:11:04.682Z,118.12
2018-12-14T09:12:04.643Z,118.12
2018-12-14T09:13:04.647Z,118.12
2018-12-14T09:14:04.606Z,118.12
2018-12-14T09:15:04.596Z,118.12
2018-12-14T09:16:04.628Z,118.12
2018-12-14T09:17:04.616Z,123.75
2018-12-14T09:18:04.567Z,123.75
2018-12-14T09:19:04.563Z,123.75
2018-12-14T09:20:04.560Z,123.75
2018-12-14T09:21:04.562Z,123.75
2018-12-14T09:22:04.581Z,123.75
2018-12-14T09:23:04.528Z,123.75
2018-12-14T09:24:04.519Z,123.75
2018-12-14T09:25:04.506Z,123.75
2018-12-14T09:26:04.505Z,123.75
2018-12-14T09:27:04.509Z,123.75
2018-12-14T09:28:04.471Z,129.38
2018-12-14T09:29:04.486Z,129.38
2018-12-14T09:30:04.473Z,129.38
2018-12-14T09:31:04.437Z,129.38
2018-12-14T09:32:04.493Z,129.38
2018-12-14T09:33:04.417Z,129.38
2018-12-14T09:34:04.411Z,129.38
2018-12-14T09:35:04.412Z,135.00
2018-12-14T09:36:04.391Z,135.00
2018-12-14T09:37:04.427Z,135.00
2018-12-14T09:38:04.413Z,140.62
2018-12-14T09:39:04.364Z,157.50
2018-12-14T09:40:04.355Z,253.12
2018-12-14T09:41:04.379Z,393.75
2018-12-14T09:42:04.319Z,511.88
2018-12-14T09:43:04.326Z,601.88
2018-12-14T09:44:04.306Z,613.12
2018-12-14T09:45:04.295Z,618.75
2018-12-14T09:46:04.322Z,624.38
2018-12-14T09:47:04.284Z,624.38
2018-12-14T09:48:04.264Z,630.00
2018-12-14T09:49:04.270Z,630.00
2018-12-14T09:50:04.236Z,635.62
2018-12-14T09:51:04.277Z,635.62
2018-12-14T09:52:04.219Z,641.25
2018-12-14T09:53:04.259Z,641.25
2018-12-14T09:54:04.227Z,641.25
2018-12-14T09:55:04.181Z,646.88
2018-12-14T09:56:04.211Z,646.88
2018-12-14T09:57:04.175Z,646.88
2018-12-14T09:58:04.205Z,652.50
2018-12-14T09:59:04.174Z,652.50
2018-12-14T10:00:04.129Z,658.12
2018-12-14T10:01:04.119Z,658.12
2018-12-14T10:02:04.149Z,658.12
2018-12-14T10:03:04.134Z,663.75
2018-12-14T10:04:04.107Z,663.75
2018-12-14T10:05:04.100Z,669.38
2018-12-14T10:06:04.064Z,669.38
2018-12-14T10:07:04.074Z,675.00
2018-12-14T10:08:04.052Z,675.00
2018-12-14T10:09:04.045Z,686.25
2018-12-14T10:10:04.027Z,680.62
2018-12-14T10:11:04.012Z,680.62
2018-12-14T10:12:04.006Z,691.88
2018-12-14T10:13:04.066Z,686.25
2018-12-14T10:14:03.985Z,691.88
2018-12-14T10:15:03.995Z,691.88
2018-12-14T10:16:03.962Z,697.50
2018-12-14T10:17:03.991Z,697.50
2018-12-14T10:18:03.944Z,703.12
2018-12-14T10:19:03.931Z,703.12
2018-12-14T10:20:03.961Z,703.12
2018-12-14T10:21:03.928Z,703.12
2018-12-14T10:22:03.951Z,708.75
2018-12-14T10:23:03.886Z,708.75
2018-12-14T10:24:03.881Z,708.75
2018-12-14T10:25:03.863Z,708.75
2018-12-14T10:26:03.858Z,708.75
2018-12-14T10:27:03.897Z,714.38
2018-12-14T10:28:03.838Z,714.38
2018-12-14T10:29:03.823Z,714.38
2018-12-14T10:30:03.809Z,714.38
2018-12-14T10:31:03.798Z,714.38
2018-12-14T10:32:03.794Z,714.38
2018-12-14T10:33:03.845Z,720.00
2018-12-14T10:34:03.788Z,720.00
2018-12-14T10:35:03.763Z,720.00
2018-12-14T10:36:03.745Z,720.00
2018-12-14T10:37:03.782Z,725.62
2018-12-14T10:38:03.734Z,725.62
2018-12-14T10:39:03.733Z,725.62
2018-12-14T10:40:03.701Z,725.62
2018-12-14T10:41:03.699Z,725.62
2018-12-14T10:42:03.715Z,731.25
2018-12-14T10:43:03.675Z,731.25
2018-12-14T10:44:07.453Z,731.25
2018-12-14T10:45:03.677Z,736.88
2018-12-14T10:46:03.646Z,736.88
2018-12-14T10:47:03.655Z,742.50
2018-12-14T10:48:03.627Z,742.50
2018-12-14T10:49:03.610Z,742.50
2018-12-14T10:50:03.658Z,748.12
2018-12-14T10:51:03.599Z,748.12
2018-12-14T10:52:03.597Z,753.75
2018-12-14T10:53:04.642Z,753.75
2018-12-14T10:54:03.548Z,759.38
2018-12-14T10:55:03.580Z,759.38
2018-12-14T10:56:03.545Z,765.00
2018-12-14T10:57:03.513Z,770.62
2018-12-14T10:58:03.506Z,765.00
2018-12-14T10:59:03.555Z,765.00
2018-12-14T11:00:03.486Z,765.00
2018-12-14T11:01:03.470Z,765.00
2018-12-14T11:02:03.465Z,765.00
2018-12-14T11:03:03.476Z,765.00
2018-12-14T11:04:03.481Z,770.62
2018-12-14T11:05:03.436Z,770.62
2018-12-14T11:06:03.435Z,770.62
2018-12-14T11:07:03.408Z,781.88
2018-12-14T11:08:03.398Z,793.12
2018-12-14T11:09:03.421Z,798.75
2018-12-14T11:10:03.389Z,793.12
2018-12-14T11:11:03.366Z,787.50
2018-12-14T11:12:03.357Z,793.12
2018-12-14T11:13:03.372Z,793.12
2018-12-14T11:14:03.379Z,798.75
2018-12-14T11:15:03.329Z,793.12
2018-12-14T11:16:03.317Z,793.12
2018-12-14T11:17:03.355Z,793.12
2018-12-14T11:18:03.289Z,793.12
2018-12-14T11:19:03.282Z,793.12
2018-12-14T11:20:03.311Z,793.12
2018-12-14T11:21:03.258Z,793.12
2018-12-14T11:22:03.295Z,798.75
2018-12-14T11:23:03.242Z,798.75
2018-12-14T11:24:03.239Z,804.38
2018-12-14T11:25:03.225Z,804.38
2018-12-14T11:26:03.228Z,804.38
2018-12-14T11:27:03.237Z,810.00
2018-12-14T11:28:03.192Z,815.62
2018-12-14T11:29:03.171Z,804.38
2018-12-14T11:30:03.168Z,804.38
2018-12-14T11:31:03.157Z,804.38
2018-12-14T11:32:03.198Z,804.38
2018-12-14T11:33:03.133Z,810.00
2018-12-14T11:34:03.119Z,810.00
2018-12-14T11:35:03.110Z,810.00
2018-12-14T11:36:03.095Z,810.00
2018-12-14T11:37:03.126Z,815.62
2018-12-14T11:38:03.114Z,815.62
2018-12-14T11:39:04.292Z,815.62
2018-12-14T11:40:03.121Z,815.62
2018-12-14T11:41:03.070Z,821.25
2018-12-14T11:42:03.080Z,821.25
2018-12-14T11:43:03.025Z,821.25
2018-12-14T11:44:03.031Z,821.25
2018-12-14T11:45:03.005Z,826.88
2018-12-14T11:46:03.006Z,826.88
2018-12-14T11:47:03.015Z,826.88
2018-12-14T11:48:02.981Z,832.50
2018-12-14T11:49:02.984Z,838.12
2018-12-14T11:50:02.950Z,843.75
2018-12-14T11:51:02.934Z,843.75
2018-12-14T11:52:02.962Z,849.38
2018-12-14T11:53:02.919Z,855.00
2018-12-14T11:54:02.921Z,849.38
2018-12-14T11:55:02.895Z,838.12
2018-12-14T11:56:02.901Z,843.75
2018-12-14T11:57:02.928Z,843.75
2018-12-14T11:58:02.872Z,838.12
2018-12-14T11:59:02.855Z,832.50
2018-12-14T12:00:02.864Z,832.50
2018-12-14T12:01:02.845Z,826.88
2018-12-14T12:02:02.884Z,826.88
2018-12-14T12:03:02.842Z,832.50
2018-12-14T12:04:02.795Z,832.50
2018-12-14T12:05:02.818Z,832.50
2018-12-14T12:06:02.780Z,838.12
2018-12-14T12:07:02.807Z,832.50
2018-12-14T12:08:02.811Z,838.12
2018-12-14T12:09:02.747Z,832.50
2018-12-14T12:10:02.737Z,832.50
2018-12-14T12:11:02.731Z,838.12
2018-12-14T12:12:02.778Z,838.12
2018-12-14T12:13:02.726Z,838.12
2018-12-14T12:14:02.693Z,838.12
2018-12-14T12:15:02.688Z,843.75
2018-12-14T12:16:02.678Z,843.75
2018-12-14T12:17:02.705Z,843.75
2018-12-14T12:18:02.665Z,849.38
2018-12-14T12:19:02.679Z,849.38
2018-12-14T12:20:02.632Z,860.62
2018-12-14T12:21:02.620Z,849.38
2018-12-14T12:22:02.653Z,849.38
2018-12-14T12:23:02.614Z,843.75
2018-12-14T12:24:02.596Z,843.75
2018-12-14T12:25:02.631Z,855.00
2018-12-14T12:26:02.590Z,855.00
2018-12-14T12:27:02.568Z,860.62
2018-12-14T12:28:02.545Z,871.88
2018-12-14T12:29:02.535Z,877.50
2018-12-14T12:30:02.564Z,894.38
2018-12-14T12:31:02.569Z,911.25
2018-12-14T12:32:02.524Z,933.75
2018-12-14T12:33:02.504Z,961.88
2018-12-14T12:34:02.499Z,1001.25
2018-12-14T12:35:02.519Z,1091.25
2018-12-14T12:36:02.461Z,1434.38
2018-12-14T12:37:02.447Z,1642.50
2018-12-14T12:38:02.458Z,1726.88
2018-12-14T12:39:02.445Z,1440.00
2018-12-14T12:40:02.467Z,1518.75
2018-12-14T12:41:02.434Z,1636.88
2018-12-14T12:42:02.414Z,1670.62
2018-12-14T12:43:02.383Z,1715.62
2018-12-14T12:44:02.376Z,1771.88
2018-12-14T12:45:02.416Z,1816.88
2018-12-14T12:46:02.368Z,1811.25
2018-12-14T12:47:02.379Z,1839.38
2018-12-14T12:48:02.331Z,1996.88
2018-12-14T12:49:02.333Z,2047.50
2018-12-14T12:50:02.352Z,1828.12
2018-12-14T12:51:03.264Z,1743.75
2018-12-14T12:52:02.302Z,1794.38
2018-12-14T12:53:02.292Z,1828.12
2018-12-14T12:54:02.309Z,1811.25
2018-12-14T12:55:02.324Z,1811.25
2018-12-14T12:56:02.285Z,1850.62